sensor_id;sensor_type;location;lat;lon;timestamp;P1;durP1;ratioP1;P2;durP2;ratioP2
21517;SDS011;61765;45.794;24.150;2022-12-29T00:07:17;30.45;;;15.30;;
21517;SDS011;61765;45.794;24.150;2022-12-29T00:15:22;27.17;;;14.00;;
21517;SDS011;61765;45.794;24.150;2022-12-29T00:23:43;26.83;;;14.38;;
21517;SDS011;61765;45.794;24.150;2022-12-29T00:32:00;25.70;;;12.82;;
21517;SDS011;61765;45.794;24.150;2022-12-29T00:40:21;21.45;;;12.18;;
21517;SDS011;61765;45.794;24.150;2022-12-29T00:48:39;25.60;;;12.57;;
21517;SDS011;61765;45.794;24.150;2022-12-29T00:56:59;25.13;;;12.95;;
21517;SDS011;61765;45.794;24.150;2022-12-29T01:05:05;24.55;;;13.45;;
21517;SDS011;61765;45.794;24.150;2022-12-29T01:13:14;26.77;;;14.25;;
21517;SDS011;61765;45.794;24.150;2022-12-29T01:21:20;25.98;;;14.48;;
21517;SDS011;61765;45.794;24.150;2022-12-29T01:29:28;25.25;;;14.05;;
21517;SDS011;61765;45.794;24.150;2022-12-29T01:37:33;27.17;;;14.23;;
21517;SDS011;61765;45.794;24.150;2022-12-29T01:45:41;25.73;;;13.93;;
21517;SDS011;61765;45.794;24.150;2022-12-29T01:53:53;26.75;;;14.27;;
21517;SDS011;61765;45.794;24.150;2022-12-29T02:02:02;28.70;;;15.32;;
21517;SDS011;61765;45.794;24.150;2022-12-29T02:10:09;22.70;;;13.23;;
21517;SDS011;61765;45.794;24.150;2022-12-29T02:18:22;24.00;;;13.73;;
21517;SDS011;61765;45.794;24.150;2022-12-29T02:26:49;24.38;;;12.77;;
21517;SDS011;61765;45.794;24.150;2022-12-29T02:35:18;22.60;;;12.48;;
21517;SDS011;61765;45.794;24.150;2022-12-29T02:43:34;24.30;;;12.93;;
21517;SDS011;61765;45.794;24.150;2022-12-29T02:51:48;22.83;;;12.15;;
21517;SDS011;61765;45.794;24.150;2022-12-29T02:59:58;24.20;;;12.65;;
21517;SDS011;61765;45.794;24.150;2022-12-29T03:08:14;21.65;;;12.07;;
21517;SDS011;61765;45.794;24.150;2022-12-29T03:16:28;22.42;;;12.18;;
21517;SDS011;61765;45.794;24.150;2022-12-29T03:24:44;22.60;;;11.65;;
21517;SDS011;61765;45.794;24.150;2022-12-29T03:32:54;23.77;;;12.27;;
21517;SDS011;61765;45.794;24.150;2022-12-29T03:41:09;23.85;;;11.68;;
21517;SDS011;61765;45.794;24.150;2022-12-29T03:57:28;22.95;;;12.20;;
21517;SDS011;61765;45.794;24.150;2022-12-29T04:05:37;21.38;;;11.75;;
21517;SDS011;61765;45.794;24.150;2022-12-29T04:13:45;25.70;;;13.75;;
21517;SDS011;61765;45.794;24.150;2022-12-29T04:21:55;23.92;;;13.25;;
21517;SDS011;61765;45.794;24.150;2022-12-29T04:30:05;23.73;;;13.52;;
21517;SDS011;61765;45.794;24.150;2022-12-29T04:38:26;24.55;;;13.50;;
21517;SDS011;61765;45.794;24.150;2022-12-29T04:46:39;25.98;;;13.90;;
21517;SDS011;61765;45.794;24.150;2022-12-29T04:55:02;24.33;;;14.57;;
21517;SDS011;61765;45.794;24.150;2022-12-29T05:03:11;32.42;;;16.02;;
21517;SDS011;61765;45.794;24.150;2022-12-29T05:11:19;34.92;;;18.50;;
21517;SDS011;61765;45.794;24.150;2022-12-29T05:19:29;42.53;;;19.33;;
21517;SDS011;61765;45.794;24.150;2022-12-29T05:27:35;38.25;;;19.77;;
21517;SDS011;61765;45.794;24.150;2022-12-29T05:35:56;35.97;;;19.00;;
21517;SDS011;61765;45.794;24.150;2022-12-29T05:44:02;32.15;;;17.90;;
21517;SDS011;61765;45.794;24.150;2022-12-29T05:52:28;33.30;;;17.30;;
21517;SDS011;61765;45.794;24.150;2022-12-29T06:00:34;31.30;;;16.88;;
21517;SDS011;61765;45.794;24.150;2022-12-29T06:08:43;36.05;;;19.55;;
21517;SDS011;61765;45.794;24.150;2022-12-29T06:16:48;37.60;;;17.95;;
21517;SDS011;61765;45.794;24.150;2022-12-29T06:24:57;30.83;;;15.13;;
21517;SDS011;61765;45.794;24.150;2022-12-29T06:33:08;27.90;;;14.23;;
21517;SDS011;61765;45.794;24.150;2022-12-29T06:41:16;25.00;;;14.43;;
21517;SDS011;61765;45.794;24.150;2022-12-29T06:49:44;27.05;;;14.70;;
21517;SDS011;61765;45.794;24.150;2022-12-29T06:57:53;28.00;;;15.55;;
21517;SDS011;61765;45.794;24.150;2022-12-29T07:05:59;28.42;;;14.98;;
21517;SDS011;61765;45.794;24.150;2022-12-29T07:14:07;33.35;;;16.27;;
21517;SDS011;61765;45.794;24.150;2022-12-29T07:22:13;34.00;;;18.30;;
21517;SDS011;61765;45.794;24.150;2022-12-29T07:30:21;26.85;;;16.20;;
21517;SDS011;61765;45.794;24.150;2022-12-29T07:38:27;33.25;;;15.95;;
21517;SDS011;61765;45.794;24.150;2022-12-29T07:46:36;29.23;;;16.98;;
21517;SDS011;61765;45.794;24.150;2022-12-29T07:54:58;25.48;;;15.40;;
21517;SDS011;61765;45.794;24.150;2022-12-29T08:03:06;24.33;;;15.27;;
21517;SDS011;61765;45.794;24.150;2022-12-29T08:11:11;22.73;;;14.65;;
21517;SDS011;61765;45.794;24.150;2022-12-29T08:19:20;25.38;;;15.30;;
21517;SDS011;61765;45.794;24.150;2022-12-29T08:27:26;28.92;;;18.05;;
21517;SDS011;61765;45.794;24.150;2022-12-29T08:35:34;26.88;;;17.15;;
21517;SDS011;61765;45.794;24.150;2022-12-29T08:43:45;24.95;;;16.48;;
21517;SDS011;61765;45.794;24.150;2022-12-29T08:51:54;26.45;;;17.48;;
21517;SDS011;61765;45.794;24.150;2022-12-29T09:00:00;21.17;;;15.02;;
21517;SDS011;61765;45.794;24.150;2022-12-29T09:08:13;22.80;;;14.43;;
21517;SDS011;61765;45.794;24.150;2022-12-29T09:16:26;20.33;;;14.07;;
21517;SDS011;61765;45.794;24.150;2022-12-29T10:35:17;23.52;;;12.48;;
21517;SDS011;61765;45.794;24.150;2022-12-29T10:51:56;25.50;;;13.90;;
21517;SDS011;61765;45.794;24.150;2022-12-29T11:00:17;18.15;;;11.05;;
21517;SDS011;61765;45.794;24.150;2022-12-29T11:08:28;25.80;;;13.43;;
21517;SDS011;61765;45.794;24.150;2022-12-29T11:16:40;23.70;;;13.23;;
21517;SDS011;61765;45.794;24.150;2022-12-29T11:24:52;24.70;;;14.20;;
21517;SDS011;61765;45.794;24.150;2022-12-29T11:33:19;27.42;;;15.95;;
21517;SDS011;61765;45.794;24.150;2022-12-29T11:41:28;28.13;;;16.33;;
21517;SDS011;61765;45.794;24.150;2022-12-29T11:49:36;25.40;;;15.35;;
21517;SDS011;61765;45.794;24.150;2022-12-29T11:57:45;30.10;;;17.80;;
21517;SDS011;61765;45.794;24.150;2022-12-29T12:05:55;29.23;;;17.02;;
21517;SDS011;61765;45.794;24.150;2022-12-29T12:14:10;24.92;;;14.30;;
21517;SDS011;61765;45.794;24.150;2022-12-29T12:22:41;27.88;;;16.25;;
21517;SDS011;61765;45.794;24.150;2022-12-29T12:31:01;28.85;;;16.63;;
21517;SDS011;61765;45.794;24.150;2022-12-29T12:39:17;28.85;;;16.92;;
21517;SDS011;61765;45.794;24.150;2022-12-29T12:47:38;33.10;;;18.13;;
21517;SDS011;61765;45.794;24.150;2022-12-29T12:56:01;32.08;;;18.50;;
21517;SDS011;61765;45.794;24.150;2022-12-29T13:04:43;33.20;;;18.85;;
21517;SDS011;61765;45.794;24.150;2022-12-29T13:13:14;30.10;;;17.63;;
21517;SDS011;61765;45.794;24.150;2022-12-29T13:21:45;27.08;;;15.20;;
21517;SDS011;61765;45.794;24.150;2022-12-29T13:30:08;23.35;;;15.30;;
21517;SDS011;61765;45.794;24.150;2022-12-29T13:38:22;26.48;;;15.05;;
21517;SDS011;61765;45.794;24.150;2022-12-29T13:46:34;27.95;;;16.08;;
21517;SDS011;61765;45.794;24.150;2022-12-29T13:54:51;32.83;;;14.95;;
21517;SDS011;61765;45.794;24.150;2022-12-29T14:03:12;28.63;;;14.15;;
21517;SDS011;61765;45.794;24.150;2022-12-29T14:11:50;29.70;;;15.13;;
21517;SDS011;61765;45.794;24.150;2022-12-29T14:19:56;41.63;;;19.80;;
21517;SDS011;61765;45.794;24.150;2022-12-29T14:28:20;28.85;;;16.65;;
21517;SDS011;61765;45.794;24.150;2022-12-29T14:36:33;21.77;;;12.77;;
21517;SDS011;61765;45.794;24.150;2022-12-29T14:44:51;25.83;;;13.40;;
21517;SDS011;61765;45.794;24.150;2022-12-29T14:53:01;42.92;;;15.63;;
21517;SDS011;61765;45.794;24.150;2022-12-29T15:01:18;41.53;;;17.75;;
21517;SDS011;61765;45.794;24.150;2022-12-29T15:09:27;45.03;;;19.15;;
21517;SDS011;61765;45.794;24.150;2022-12-29T15:17:43;30.97;;;18.23;;
21517;SDS011;61765;45.794;24.150;2022-12-29T15:25:50;30.70;;;17.60;;
21517;SDS011;61765;45.794;24.150;2022-12-29T15:34:09;36.63;;;19.65;;
21517;SDS011;61765;45.794;24.150;2022-12-29T15:42:20;44.63;;;22.80;;
21517;SDS011;61765;45.794;24.150;2022-12-29T15:50:47;51.03;;;25.58;;
21517;SDS011;61765;45.794;24.150;2022-12-29T15:58:54;59.85;;;28.88;;
21517;SDS011;61765;45.794;24.150;2022-12-29T16:07:03;42.95;;;23.15;;
21517;SDS011;61765;45.794;24.150;2022-12-29T16:15:12;36.95;;;21.15;;
21517;SDS011;61765;45.794;24.150;2022-12-29T16:23:30;44.10;;;21.65;;
21517;SDS011;61765;45.794;24.150;2022-12-29T16:31:49;39.00;;;21.00;;
21517;SDS011;61765;45.794;24.150;2022-12-29T16:40:25;40.90;;;21.92;;
21517;SDS011;61765;45.794;24.150;2022-12-29T16:48:33;36.35;;;19.17;;
21517;SDS011;61765;45.794;24.150;2022-12-29T16:56:44;43.22;;;21.02;;
21517;SDS011;61765;45.794;24.150;2022-12-29T17:04:50;41.08;;;22.13;;
21517;SDS011;61765;45.794;24.150;2022-12-29T17:12:59;37.10;;;21.23;;
21517;SDS011;61765;45.794;24.150;2022-12-29T17:21:08;41.03;;;22.80;;
21517;SDS011;61765;45.794;24.150;2022-12-29T17:29:19;46.72;;;24.23;;
21517;SDS011;61765;45.794;24.150;2022-12-29T17:37:31;60.55;;;29.63;;
21517;SDS011;61765;45.794;24.150;2022-12-29T17:54:45;51.22;;;28.27;;
21517;SDS011;61765;45.794;24.150;2022-12-29T18:20:50;47.67;;;26.42;;
21517;SDS011;61765;45.794;24.150;2022-12-29T18:29:07;53.40;;;25.85;;
21517;SDS011;61765;45.794;24.150;2022-12-29T18:46:44;39.47;;;22.02;;
21517;SDS011;61765;45.794;24.150;2022-12-29T18:55:03;43.35;;;23.63;;
21517;SDS011;61765;45.794;24.150;2022-12-29T19:04:19;47.92;;;27.13;;
21517;SDS011;61765;45.794;24.150;2022-12-29T19:21:21;52.00;;;28.15;;
21517;SDS011;61765;45.794;24.150;2022-12-29T19:29:27;48.75;;;26.38;;
21517;SDS011;61765;45.794;24.150;2022-12-29T19:37:39;51.08;;;28.35;;
21517;SDS011;61765;45.794;24.150;2022-12-29T19:45:44;59.53;;;30.13;;
21517;SDS011;61765;45.794;24.150;2022-12-29T19:53:54;51.30;;;26.42;;
21517;SDS011;61765;45.794;24.150;2022-12-29T20:03:28;47.47;;;25.52;;
21517;SDS011;61765;45.794;24.150;2022-12-29T20:11:52;45.58;;;23.60;;
21517;SDS011;61765;45.794;24.150;2022-12-29T20:20:20;42.67;;;23.23;;
21517;SDS011;61765;45.794;24.150;2022-12-29T20:37:17;47.88;;;26.80;;
21517;SDS011;61765;45.794;24.150;2022-12-29T21:03:15;35.72;;;19.00;;
21517;SDS011;61765;45.794;24.150;2022-12-29T21:11:21;35.28;;;19.58;;
21517;SDS011;61765;45.794;24.150;2022-12-29T21:19:30;34.60;;;19.45;;
21517;SDS011;61765;45.794;24.150;2022-12-29T21:27:35;40.47;;;20.65;;
21517;SDS011;61765;45.794;24.150;2022-12-29T21:35:44;48.10;;;24.45;;
21517;SDS011;61765;45.794;24.150;2022-12-29T21:43:54;30.20;;;15.77;;
21517;SDS011;61765;45.794;24.150;2022-12-29T22:09:27;48.83;;;23.45;;
21517;SDS011;61765;45.794;24.150;2022-12-29T22:35:12;44.60;;;23.65;;
21517;SDS011;61765;45.794;24.150;2022-12-29T22:43:18;46.55;;;24.30;;
21517;SDS011;61765;45.794;24.150;2022-12-29T22:51:27;52.75;;;26.33;;
21517;SDS011;61765;45.794;24.150;2022-12-29T23:07:53;44.20;;;24.00;;
21517;SDS011;61765;45.794;24.150;2022-12-29T23:51:03;44.15;;;24.75;;
21517;SDS011;61765;45.794;24.150;2022-12-29T23:59:09;42.65;;;23.75;;
